Terminal Aerodrome Forecast
Issued by NWS Riverton, WY

Home | Current Version | Previous Version | Text Only | Print | Product List | Glossary On
Versions: 1 2 3 4 5 6 7 8 9 10 11 12
000
FTUS45 KRIW 201100
TAFRIW
TAF
KRIW 201120Z 2012/2112 28006KT P6SM SCT120 BKN250
     FM202100 30011KT P6SM FEW120 SCT250
     FM210000 36012G22KT P6SM SCT250
     FM210300 04010KT P6SM SCT250
     FM210600 08008KT P6SM SCT250=

USA.gov is the U.S. government's official web portal to all federal, state and local government web resources and services.